Time;durP1;ratioP1;P1;durP2;ratioP2;P2;SDS_P1;SDS_P2;PMS_P1;PMS_P2;Temp;Humidity;BMP_temperature;BMP_pressure;BME280_temperature;BME280_humidity;BME280_pressure;Samples;Min_cycle;Max_cycle;Signal;HPM_P1;HPM_P2
2023/01/26 00:01:28;;;;;;;94.80;33.85;;;;;;;-2.06;100.00;102486.16;5028198;28;20035;-79
2023/01/26 00:03:54;;;;;;;85.13;30.40;;;;;;;-2.08;100.00;102482.75;5041121;28;20032;-79
2023/01/26 00:06:20;;;;;;;86.20;30.10;;;;;;;-2.06;100.00;102476.00;5033500;28;20291;-80
2023/01/26 00:08:48;;;;;;;87.60;31.73;;;;;;;-2.08;100.00;102473.44;5042720;28;20541;-79
2023/01/26 00:11:16;;;;;;;83.78;29.48;;;;;;;-2.07;100.00;102474.28;5034052;28;20037;-79
2023/01/26 00:13:42;;;;;;;77.50;30.50;;;;;;;-2.11;100.00;102465.00;5039650;28;20017;-79
2023/01/26 00:16:10;;;;;;;87.10;31.90;;;;;;;-2.06;100.00;102471.75;5037499;28;20028;-79
2023/01/26 00:18:37;;;;;;;73.40;26.52;;;;;;;-2.08;100.00;102459.88;5042214;28;20025;-79
2023/01/26 00:21:03;;;;;;;85.53;30.70;;;;;;;-2.10;100.00;102454.81;5037301;28;20052;-79
2023/01/26 00:23:31;;;;;;;72.90;26.75;;;;;;;-2.08;100.00;102467.50;5045246;28;20496;-79
2023/01/26 00:25:56;;;;;;;78.07;29.02;;;;;;;-2.14;100.00;102459.03;5046276;28;20100;-78
2023/01/26 00:28:22;;;;;;;77.28;29.00;;;;;;;-2.15;100.00;102449.72;5034431;28;20017;-79
2023/01/26 00:30:47;;;;;;;74.75;28.20;;;;;;;-2.13;100.00;102460.72;5046594;28;20033;-79
2023/01/26 00:33:13;;;;;;;83.70;28.38;;;;;;;-2.14;100.00;102448.88;5040289;28;20067;-79
2023/01/26 00:35:43;;;;;;;81.10;30.92;;;;;;;-2.11;100.00;102442.94;5038868;28;20071;-79
2023/01/26 00:38:08;;;;;;;79.70;28.35;;;;;;;-2.07;100.00;102448.84;5045395;28;20032;-79
2023/01/26 00:40:33;;;;;;;82.15;29.63;;;;;;;-2.07;100.00;102441.22;5039980;28;20027;-79
2023/01/26 00:42:59;;;;;;;74.53;28.65;;;;;;;-2.13;100.00;102430.22;5033183;28;20369;-79
2023/01/26 00:45:24;;;;;;;83.82;29.17;;;;;;;-2.07;100.00;102438.69;5033623;28;20436;-79
2023/01/26 00:47:50;;;;;;;83.40;28.63;;;;;;;-2.04;100.00;102433.59;5034468;28;20350;-79
2023/01/26 00:50:15;;;;;;;85.25;31.88;;;;;;;-2.10;100.00;102423.47;5038040;28;20519;-79
2023/01/26 00:52:40;;;;;;;84.32;32.13;;;;;;;-2.07;100.00;102434.44;5041156;28;20024;-79
2023/01/26 00:55:06;;;;;;;82.18;30.45;;;;;;;-2.11;100.00;102429.41;5043727;28;20522;-79
2023/01/26 00:57:32;;;;;;;85.45;31.55;;;;;;;-2.10;100.00;102438.72;5041947;28;20521;-79
2023/01/26 00:59:57;;;;;;;80.40;29.17;;;;;;;-2.16;100.00;102430.25;5038244;28;20013;-79
2023/01/26 01:02:22;;;;;;;74.85;27.55;;;;;;;-2.14;100.00;102438.72;5039045;28;20044;-79
2023/01/26 01:04:48;;;;;;;83.85;29.75;;;;;;;-2.13;100.00;102442.94;5044165;28;20032;-79
2023/01/26 01:07:13;;;;;;;87.20;32.42;;;;;;;-2.16;100.00;102430.25;5048834;28;20029;-79
2023/01/26 01:09:38;;;;;;;87.10;32.63;;;;;;;-2.14;100.00;102438.72;5039577;28;20030;-79
2023/01/26 01:12:04;;;;;;;82.88;30.17;;;;;;;-2.13;100.00;102426.84;5036988;28;20060;-79
2023/01/26 01:14:29;;;;;;;87.35;31.52;;;;;;;-2.13;100.00;102430.22;5037426;28;20067;-79
2023/01/26 01:16:55;;;;;;;83.80;31.83;;;;;;;-2.15;100.00;102421.78;5033597;28;20100;-79
2023/01/26 01:19:20;;;;;;;84.88;31.25;;;;;;;-2.18;100.00;102421.78;5045449;28;20024;-79
2023/01/26 01:21:46;;;;;;;86.93;30.08;;;;;;;-2.10;100.00;102433.63;5033824;28;20524;-79
2023/01/26 01:24:11;;;;;;;84.15;30.30;;;;;;;-2.10;100.00;102431.09;5043253;28;20392;-79
2023/01/26 01:26:38;;;;;;;80.03;29.98;;;;;;;-2.17;100.00;102428.56;5046494;28;20025;-79
2023/01/26 01:29:03;;;;;;;86.50;31.38;;;;;;;-2.10;100.00;102423.47;5040811;28;20059;-78
2023/01/26 01:31:29;;;;;;;85.10;30.15;;;;;;;-2.13;100.00;102425.13;5050674;28;20449;-78
2023/01/26 01:33:55;;;;;;;95.80;34.33;;;;;;;-2.06;100.00;102430.25;5042706;28;20071;-78
2023/01/26 01:36:21;;;;;;;91.93;32.40;;;;;;;-2.07;100.00;102423.44;5049594;28;20472;-78
2023/01/26 01:38:47;;;;;;;88.50;32.35;;;;;;;-2.01;100.00;102433.56;5047325;28;20536;-78
2023/01/26 01:41:15;;;;;;;90.10;33.22;;;;;;;-2.01;100.00;102429.34;5031119;28;20036;-78
2023/01/26 01:43:41;;;;;;;86.78;31.52;;;;;;;-2.06;100.00;102414.97;5040168;28;20036;-79
2023/01/26 01:46:28;;;;;;;92.50;33.75;;;;;;;-1.96;100.00;102426.78;5037602;28;20033;-78
2023/01/26 01:48:59;;;;;;;89.95;32.30;;;;;;;-1.95;100.00;102423.38;5039173;28;20035;-78
2023/01/26 01:51:50;;;;;;;88.20;32.92;;;;;;;-1.94;100.00;102425.09;5040783;28;20040;-78
2023/01/26 01:54:19;;;;;;;76.43;30.20;;;;;;;-1.95;100.00;102428.47;5040252;28;20120;-78
2023/01/26 01:56:51;;;;;;;91.47;32.60;;;;;;;-2.00;100.00;102415.81;5046518;28;20082;-78
2023/01/26 01:59:19;;;;;;;79.82;29.67;;;;;;;-2.00;100.00;102412.41;5034922;28;20032;-78
2023/01/26 02:01:45;;;;;;;89.85;31.42;;;;;;;-1.95;100.00;102414.09;5041336;28;20043;-78
2023/01/26 02:04:11;;;;;;;83.45;32.38;;;;;;;-1.95;100.00;102413.22;5050138;28;20532;-78
2023/01/26 02:06:46;;;;;;;87.20;31.92;;;;;;;-1.92;100.00;102414.06;5040658;28;20040;-78
2023/01/26 02:10:17;;;;;;;94.03;31.27;;;;;;;-1.96;100.00;102409.00;5038363;28;20029;-79
2023/01/26 02:11:58;;;;;;;82.95;29.38;;;;;;;-1.96;100.00;102401.34;5039199;28;20036;-78
2023/01/26 02:14:24;;;;;;;83.10;29.08;;;;;;;-1.93;100.00;102396.28;5035187;28;20552;-78
2023/01/26 02:16:49;;;;;;;77.82;29.88;;;;;;;-1.94;100.00;102402.22;5028180;28;20048;-78
2023/01/26 02:19:34;;;;;;;86.03;31.42;;;;;;;-1.95;100.00;102397.97;5030923;28;20071;-78
2023/01/26 02:22:09;;;;;;;75.10;30.38;;;;;;;-1.90;100.00;102401.31;5036880;28;20154;-78
2023/01/26 02:24:37;;;;;;;76.85;26.15;;;;;;;-1.91;100.00;102403.03;5034848;28;20022;-78
2023/01/26 02:27:02;;;;;;;65.13;24.13;;;;;;;-1.92;100.00;102403.03;5037731;28;20052;-78
2023/01/26 02:29:28;;;;;;;68.88;28.40;;;;;;;-1.93;100.00;102401.34;5040296;28;20064;-78
2023/01/26 02:31:54;;;;;;;75.18;27.83;;;;;;;-1.97;100.00;102384.41;5033406;28;20372;-78
2023/01/26 02:34:19;;;;;;;67.05;23.17;;;;;;;-1.92;100.00;102387.78;5041688;28;20036;-78
2023/01/26 02:36:55;;;;;;;75.70;27.73;;;;;;;-1.92;100.00;102387.78;5050403;28;20032;-79
2023/01/26 02:40:05;;;;;;;71.40;26.63;;;;;;;-1.90;100.00;102381.81;5036472;28;20472;-78
2023/01/26 02:42:43;;;;;;;68.18;25.13;;;;;;;-1.90;100.00;102397.09;5028152;28;20036;-79
2023/01/26 02:45:11;;;;;;;69.22;24.63;;;;;;;-1.92;100.00;102392.88;5041067;28;20060;-78
2023/01/26 02:47:37;;;;;;;68.32;26.77;;;;;;;-1.91;100.00;102381.84;5037859;28;20418;-78
2023/01/26 02:50:03;;;;;;;72.88;26.30;;;;;;;-1.96;100.00;102381.00;5030768;28;20156;-78
2023/01/26 02:52:31;;;;;;;74.15;27.52;;;;;;;-1.94;100.00;102375.09;5041486;28;20032;-78
2023/01/26 02:57:41;;;;;;;69.00;26.20;;;;;;;-1.93;100.00;102381.03;5036497;28;19943;-77
2023/01/26 03:00:10;;;;;;;65.85;24.35;;;;;;;-1.85;100.00;102393.69;5037561;28;20342;-78
2023/01/26 03:02:36;;;;;;;65.55;24.25;;;;;;;-1.95;100.00;102373.41;5034478;28;20034;-78
2023/01/26 03:05:03;;;;;;;66.25;25.30;;;;;;;-1.90;100.00;102381.00;5030305;28;20037;-78
2023/01/26 03:07:29;;;;;;;62.78;23.90;;;;;;;-1.88;100.00;102381.84;5033758;28;20024;-79
2023/01/26 03:09:54;;;;;;;60.95;21.98;;;;;;;-1.86;100.00;102390.31;5034560;28;20605;-78
2023/01/26 03:12:19;;;;;;;60.63;21.17;;;;;;;-1.82;100.00;102398.78;5039117;28;20453;-78
2023/01/26 03:14:44;;;;;;;64.15;23.60;;;;;;;-1.87;100.00;102398.78;5025550;28;20037;-79
2023/01/26 03:17:10;;;;;;;64.55;24.25;;;;;;;-1.79;100.00;102409.75;5039750;28;20032;-78
2023/01/26 03:27:48;;;;;;;61.58;22.42;;;;;;;-1.77;100.00;102392.81;5041631;28;20110;-78
2023/01/26 03:30:17;;;;;;;56.55;21.27;;;;;;;-1.78;100.00;102395.34;5034188;28;20033;-80
2023/01/26 03:32:42;;;;;;;59.85;24.40;;;;;;;-1.80;100.00;102392.81;5050422;28;20103;-79
2023/01/26 03:35:13;;;;;;;64.10;23.17;;;;;;;-1.74;100.00;102397.88;5047855;28;20158;-78
2023/01/26 03:37:42;;;;;;;62.03;23.00;;;;;;;-1.71;100.00;102397.84;5040068;28;20033;-78
2023/01/26 03:56:33;;;;;;;56.67;20.65;;;;;;;-1.64;100.00;102384.25;5033939;28;20538;-78
2023/01/26 03:59:07;;;;;;;50.88;20.23;;;;;;;-1.69;100.00;102375.78;5032128;28;20061;-78
2023/01/26 04:01:37;;;;;;;48.67;20.02;;;;;;;-1.66;100.00;102380.88;5032807;28;20029;-78
2023/01/26 04:09:35;;;;;;;49.67;19.40;;;;;;;-1.65;100.00;102372.38;5032843;28;20043;-79
2023/01/26 04:12:01;;;;;;;52.23;18.73;;;;;;;-1.58;100.00;102382.53;5034317;28;20467;-78
2023/01/26 04:22:43;;;;;;;51.90;19.80;;;;;;;-1.58;100.00;102382.53;5031598;28;20431;-78
2023/01/26 04:25:11;;;;;;;51.40;20.27;;;;;;;-1.58;100.00;102377.44;5034643;28;20307;-78
2023/01/26 04:27:36;;;;;;;52.28;19.92;;;;;;;-1.55;100.00;102387.56;5033427;28;20090;-78
2023/01/26 04:30:03;;;;;;;51.25;19.38;;;;;;;-1.53;100.00;102385.88;5027151;28;20450;-78
2023/01/26 04:32:29;;;;;;;50.15;19.88;;;;;;;-1.52;100.00;102380.78;5040119;28;20029;-78
2023/01/26 04:34:54;;;;;;;47.38;19.98;;;;;;;-1.50;100.00;102380.75;5039782;28;20030;-78
2023/01/26 04:37:19;;;;;;;46.40;18.05;;;;;;;-1.52;100.00;102377.41;5034236;28;20037;-78
2023/01/26 04:39:45;;;;;;;50.03;18.70;;;;;;;-1.55;100.00;102369.75;5037357;28;20025;-78
2023/01/26 04:42:10;;;;;;;46.28;18.38;;;;;;;-1.53;100.00;102380.78;5034511;28;20075;-78
2023/01/26 04:44:35;;;;;;;48.88;18.90;;;;;;;-1.51;100.00;102374.00;5035810;28;20048;-78
2023/01/26 04:47:01;;;;;;;47.05;18.25;;;;;;;-1.54;100.00;102368.94;5043370;28;20025;-78
2023/01/26 04:49:26;;;;;;;48.88;18.70;;;;;;;-1.51;100.00;102374.00;5042332;28;20337;-79
2023/01/26 04:51:51;;;;;;;47.97;17.90;;;;;;;-1.52;100.00;102357.03;5036000;28;20389;-78
2023/01/26 04:54:17;;;;;;;46.67;19.08;;;;;;;-1.46;100.00;102377.34;5035771;28;20102;-78
2023/01/26 04:56:43;;;;;;;52.78;20.25;;;;;;;-1.47;100.00;102365.50;5039210;28;20033;-78
2023/01/26 04:59:10;;;;;;;52.83;19.50;;;;;;;-1.42;100.00;102368.84;5037031;28;20064;-78
2023/01/26 05:01:35;;;;;;;50.83;20.73;;;;;;;-1.44;100.00;102371.38;5040228;28;20033;-78
2023/01/26 05:04:02;;;;;;;51.53;20.15;;;;;;;-1.44;100.00;102373.09;5032627;28;20040;-78
2023/01/26 05:06:28;;;;;;;50.72;19.23;;;;;;;-1.46;100.00;102359.53;5027292;28;20037;-79
2023/01/26 05:08:54;;;;;;;57.33;21.52;;;;;;;-1.41;100.00;102378.16;5038675;28;20041;-79
2023/01/26 05:11:19;;;;;;;51.78;20.15;;;;;;;-1.41;100.00;102368.84;5035376;28;20040;-78
2023/01/26 05:13:46;;;;;;;50.03;20.35;;;;;;;-1.44;100.00;102371.38;5032205;28;20068;-78
2023/01/26 05:16:13;;;;;;;46.85;18.58;;;;;;;-1.37;100.00;102373.06;5038204;28;20119;-78
2023/01/26 05:18:41;;;;;;;52.67;21.48;;;;;;;-1.55;100.00;102337.53;5044995;28;20110;-79
2023/01/26 05:21:08;;;;;;;49.85;20.58;;;;;;;-1.34;100.00;102375.56;5041967;28;20366;-80
2023/01/26 05:23:34;;;;;;;49.50;19.52;;;;;;;-1.35;100.00;102367.94;5030187;28;20025;-79
2023/01/26 05:25:59;;;;;;;47.95;19.73;;;;;;;-1.33;100.00;102368.75;5034820;28;20396;-78
2023/01/26 05:28:24;;;;;;;52.92;20.60;;;;;;;-1.35;100.00;102360.31;5041900;28;20224;-78
2023/01/26 05:30:50;;;;;;;54.15;20.15;;;;;;;-1.36;100.00;102363.72;5035730;28;20021;-78
2023/01/26 05:33:15;;;;;;;53.85;20.50;;;;;;;-1.33;100.00;102358.59;5035336;28;20135;-79
2023/01/26 05:35:41;;;;;;;51.92;19.88;;;;;;;-1.28;100.00;102367.03;5033566;28;20025;-78
2023/01/26 05:38:07;;;;;;;54.03;21.00;;;;;;;-1.29;100.00;102359.41;5047705;28;20473;-79
2023/01/26 05:40:32;;;;;;;57.33;21.42;;;;;;;-1.27;100.00;102373.81;5046729;28;20048;-78
2023/01/26 05:42:58;;;;;;;52.38;21.02;;;;;;;-1.30;100.00;102358.56;5036878;28;20040;-78
2023/01/26 05:45:23;;;;;;;55.08;20.10;;;;;;;-1.26;100.00;102365.34;5039124;28;20114;-77
2023/01/26 05:47:48;;;;;;;50.67;20.35;;;;;;;-1.26;100.00;102364.47;5037438;28;20064;-80
2023/01/26 05:50:14;;;;;;;52.58;19.27;;;;;;;-1.24;100.00;102358.53;5036833;28;20112;-78
2023/01/26 05:52:42;;;;;;;48.75;19.42;;;;;;;-1.21;100.00;102368.66;5037988;28;20035;-77
2023/01/26 05:55:07;;;;;;;54.38;21.85;;;;;;;-1.21;100.00;102355.94;5044007;28;20104;-77
2023/01/26 05:57:33;;;;;;;51.85;19.83;;;;;;;-1.28;100.00;102350.91;5045876;28;20035;-79
2023/01/26 05:59:58;;;;;;;52.72;20.60;;;;;;;-1.22;100.00;102361.06;5041866;28;20028;-79
2023/01/26 06:02:26;;;;;;;49.97;20.23;;;;;;;-1.25;100.00;102361.94;5042936;28;20048;-79
2023/01/26 06:04:51;;;;;;;50.95;20.85;;;;;;;-1.18;100.00;102363.56;5035825;28;20504;-80
2023/01/26 06:07:17;;;;;;;53.97;19.80;;;;;;;-1.21;100.00;102363.56;5045582;28;20063;-78
2023/01/26 06:09:42;;;;;;;51.88;20.08;;;;;;;-1.15;100.00;102373.75;5043941;28;20432;-79
2023/01/26 06:12:16;;;;;;;51.75;20.33;;;;;;;-1.23;100.00;102355.13;5042885;28;20032;-78
2023/01/26 06:14:42;;;;;;;51.97;19.67;;;;;;;-1.19;100.00;102364.44;5041343;28;20376;-77
2023/01/26 06:17:07;;;;;;;53.58;21.20;;;;;;;-1.16;100.00;102377.13;5039310;28;20123;-77
2023/01/26 06:19:33;;;;;;;54.15;20.08;;;;;;;-1.16;100.00;102379.66;5036549;28;20488;-79
2023/01/26 06:21:58;;;;;;;51.75;20.48;;;;;;;-1.19;100.00;102369.53;5037487;28;20035;-78
2023/01/26 06:24:23;;;;;;;53.72;22.50;;;;;;;-1.16;100.00;102384.75;5036172;28;20040;-78
2023/01/26 06:26:49;;;;;;;49.40;18.92;;;;;;;-1.15;100.00;102383.91;5040846;28;20092;-80
2023/01/26 06:29:15;;;;;;;48.05;19.25;;;;;;;-1.18;100.00;102381.38;5042628;28;20031;-80
2023/01/26 06:31:40;;;;;;;47.58;17.70;;;;;;;-1.17;100.00;102384.78;5031323;28;20476;-79
2023/01/26 06:34:07;;;;;;;50.92;18.42;;;;;;;-1.16;100.00;102381.38;5047328;28;20029;-79
2023/01/26 06:36:33;;;;;;;52.90;20.52;;;;;;;-1.14;100.00;102395.78;5040774;28;20041;-79
2023/01/26 06:38:59;;;;;;;50.55;17.85;;;;;;;-1.19;100.00;102381.41;5039248;28;20437;-80
2023/01/26 06:41:24;;;;;;;46.42;17.33;;;;;;;-1.16;100.00;102381.38;5035500;28;20028;-79
2023/01/26 06:43:50;;;;;;;50.13;18.40;;;;;;;-1.12;100.00;102394.06;5035374;28;20033;-79
2023/01/26 06:46:16;;;;;;;52.85;18.17;;;;;;;-1.16;100.00;102377.13;5037213;28;20044;-79
2023/01/26 06:48:41;;;;;;;46.13;18.63;;;;;;;-1.15;100.00;102389.00;5042814;28;20032;-79
2023/01/26 06:51:19;;;;;;;41.40;16.67;;;;;;;-1.08;100.00;102400.84;5037541;28;20026;-79
2023/01/26 06:53:57;;;;;;;43.83;17.77;;;;;;;-1.13;100.00;102397.47;5034458;28;20548;-79
2023/01/26 06:56:23;;;;;;;46.20;17.35;;;;;;;-1.08;100.00;102416.09;5037745;28;20472;-79
2023/01/26 06:58:49;;;;;;;43.90;16.67;;;;;;;-1.14;100.00;102398.34;5044995;28;20531;-79
2023/01/26 07:01:20;;;;;;;49.55;18.92;;;;;;;-1.14;100.00;102395.78;5039898;28;20047;-80
2023/01/26 07:03:53;;;;;;;45.28;18.05;;;;;;;-1.06;100.00;102398.25;5037000;28;20039;-79
2023/01/26 07:06:19;;;;;;;46.05;18.20;;;;;;;-1.04;100.00;102405.88;5030297;28;20041;-79
2023/01/26 07:08:45;;;;;;;43.80;17.10;;;;;;;-1.08;100.00;102405.91;5038451;28;20078;-80
2023/01/26 07:11:11;;;;;;;48.00;19.13;;;;;;;-1.03;100.00;102405.03;5039222;28;20099;-79
2023/01/26 07:13:37;;;;;;;46.67;18.55;;;;;;;-1.04;100.00;102400.78;5036045;28;20103;-79
2023/01/26 07:16:10;;;;;;;38.25;16.17;;;;;;;-1.02;100.00;102399.09;5040914;28;20033;-79
2023/01/26 07:18:36;;;;;;;42.42;17.20;;;;;;;-1.04;100.00;102401.63;5033643;28;20028;-79
2023/01/26 07:21:13;;;;;;;42.50;17.45;;;;;;;-1.04;100.00;102393.16;5037347;28;20071;-79
2023/01/26 07:23:39;;;;;;;42.83;16.90;;;;;;;-1.05;100.00;102394.84;5042287;28;20025;-79
2023/01/26 07:26:05;;;;;;;39.97;16.02;;;;;;;-1.05;100.00;102399.09;5042204;28;20048;-79
2023/01/26 07:28:33;;;;;;;42.95;16.50;;;;;;;-1.10;100.00;102387.25;5039080;28;20067;-79
2023/01/26 07:30:59;;;;;;;40.85;18.23;;;;;;;-1.07;100.00;102392.34;5033137;28;20071;-79
2023/01/26 07:33:25;;;;;;;39.47;16.67;;;;;;;-1.01;100.00;102406.72;5035829;28;20070;-80
2023/01/26 07:35:54;;;;;;;41.08;16.42;;;;;;;-1.01;100.00;102416.91;5047471;28;20029;-80
2023/01/26 07:38:19;;;;;;;40.33;17.95;;;;;;;-1.09;100.00;102414.44;5034102;28;20080;-80
2023/01/26 07:40:45;;;;;;;40.55;15.57;;;;;;;-1.02;100.00;102419.47;5044243;28;20017;-80
2023/01/26 07:43:10;;;;;;;42.53;16.90;;;;;;;-1.01;100.00;102427.09;5041815;28;20036;-79
2023/01/26 07:45:36;;;;;;;44.05;17.80;;;;;;;-1.12;100.00;102414.44;5037701;28;20098;-80
2023/01/26 07:48:01;;;;;;;42.53;15.95;;;;;;;-1.08;100.00;102421.19;5035592;28;20125;-80
2023/01/26 07:50:27;;;;;;;37.00;15.52;;;;;;;-1.00;100.00;102427.94;5037218;28;20039;-79
2023/01/26 07:52:52;;;;;;;45.72;17.52;;;;;;;-1.02;100.00;102425.41;5035275;28;20481;-79
2023/01/26 07:55:24;;;;;;;43.70;18.52;;;;;;;-0.99;100.00;102424.53;5037201;28;20064;-79
2023/01/26 07:57:50;;;;;;;44.85;19.17;;;;;;;-1.04;100.00;102416.06;5032404;28;21801;-79
2023/01/26 08:00:17;;;;;;;40.42;16.85;;;;;;;-0.99;100.00;102429.63;5043645;28;20043;-79
2023/01/26 08:02:43;;;;;;;45.25;18.30;;;;;;;-1.04;100.00;102426.25;5041603;28;20032;-80
2023/01/26 08:05:09;;;;;;;50.35;19.13;;;;;;;-0.97;100.00;102438.09;5040024;28;20033;-80
2023/01/26 08:07:34;;;;;;;44.22;16.45;;;;;;;-0.95;100.00;102431.28;5039760;28;20024;-80
2023/01/26 08:09:59;;;;;;;41.42;15.95;;;;;;;-0.94;100.00;102427.88;5038608;28;20033;-80
2023/01/26 08:12:25;;;;;;;49.33;17.98;;;;;;;-0.96;100.00;102439.78;5039834;28;20025;-80
2023/01/26 08:14:50;;;;;;;48.75;18.08;;;;;;;-0.94;100.00;102438.06;5028469;28;20029;-80
2023/01/26 08:17:16;;;;;;;46.63;18.75;;;;;;;-0.99;100.00;102424.53;5029418;28;20033;-80
2023/01/26 08:19:42;;;;;;;50.67;18.95;;;;;;;-0.99;100.00;102433.00;5026954;28;20101;-82
2023/01/26 08:22:08;;;;;;;47.47;18.30;;;;;;;-0.91;100.00;102443.16;5037565;28;20052;-80
2023/01/26 08:24:33;;;;;;;53.88;20.60;;;;;;;-0.91;100.00;102448.25;5037126;28;20034;-80
2023/01/26 08:26:58;;;;;;;48.35;19.02;;;;;;;-0.95;100.00;102431.28;5033412;28;20031;-81
2023/01/26 08:29:24;;;;;;;50.58;19.52;;;;;;;-0.90;100.00;102444.84;5037000;28;20112;-80
2023/01/26 08:31:49;;;;;;;54.75;19.50;;;;;;;-0.96;100.00;102434.69;5029180;28;20024;-81
2023/01/26 08:34:14;;;;;;;52.80;19.48;;;;;;;-0.89;100.00;102446.53;5031012;28;20131;-80
2023/01/26 08:36:40;;;;;;;53.10;19.45;;;;;;;-0.90;100.00;102439.75;5029668;28;20033;-81
2023/01/26 08:39:05;;;;;;;49.42;19.90;;;;;;;-0.92;100.00;102431.25;5044625;28;20060;-81
2023/01/26 08:41:31;;;;;;;50.92;19.13;;;;;;;-0.88;100.00;102438.00;5040519;28;20109;-80
2023/01/26 08:43:58;;;;;;;55.55;21.35;;;;;;;-0.92;100.00;102431.25;5035517;28;20128;-81
2023/01/26 08:46:24;;;;;;;52.50;19.33;;;;;;;-0.89;100.00;102431.25;5025676;28;20081;-80
2023/01/26 08:48:49;;;;;;;50.03;18.65;;;;;;;-0.89;100.00;102431.25;5034941;28;20051;-81
2023/01/26 08:51:14;;;;;;;47.42;18.08;;;;;;;-0.86;100.00;102438.84;5034160;28;20464;-80
2023/01/26 08:53:40;;;;;;;48.28;19.92;;;;;;;-0.81;100.00;102450.69;5032155;28;20479;-79
2023/01/26 08:56:08;;;;;;;48.17;18.45;;;;;;;-0.82;100.00;102449.00;5032302;28;20591;-82
2023/01/26 08:58:34;;;;;;;48.67;17.77;;;;;;;-0.79;100.00;102442.19;5045087;28;20040;-81
2023/01/26 09:01:07;;;;;;;46.95;18.35;;;;;;;-0.77;100.00;102446.41;5044066;28;20021;-79
2023/01/26 09:03:32;;;;;;;56.83;19.23;;;;;;;-0.79;100.00;102443.03;5043672;28;20068;-83
2023/01/26 09:05:59;;;;;;;52.78;18.67;;;;;;;-0.77;100.00;102436.22;5039814;28;20086;-82
2023/01/26 09:08:25;;;;;;;54.08;19.10;;;;;;;-0.74;100.00;102451.50;5038310;28;20076;-82
2023/01/26 09:10:50;;;;;;;50.78;19.15;;;;;;;-0.74;100.00;102456.59;5034261;28;20273;-82
2023/01/26 09:13:16;;;;;;;55.20;20.05;;;;;;;-0.81;100.00;102435.41;5042051;28;20091;-82
2023/01/26 09:15:41;;;;;;;51.53;19.52;;;;;;;-0.76;100.00;102457.44;5038606;28;20070;-82
2023/01/26 09:18:06;;;;;;;60.50;18.27;;;;;;;-0.79;100.00;102453.22;5030670;28;20033;-83
2023/01/26 09:20:32;;;;;;;57.92;19.70;;;;;;;-0.77;100.00;102461.69;5039934;28;20532;-83
2023/01/26 09:22:57;;;;;;;52.05;18.63;;;;;;;-0.68;100.00;102465.88;5037816;28;20028;-82
2023/01/26 09:25:22;;;;;;;64.28;20.17;;;;;;;-0.68;100.00;102465.88;5034201;28;20122;-83
2023/01/26 09:27:48;;;;;;;52.75;19.75;;;;;;;-0.76;100.00;102452.34;5029005;28;20045;-82
2023/01/26 09:30:13;;;;;;;56.75;19.38;;;;;;;-0.67;100.00;102462.47;5035730;28;20103;-82
2023/01/26 09:32:39;;;;;;;54.30;20.45;;;;;;;-0.67;100.00;102458.22;5034772;28;20104;-81
2023/01/26 09:35:05;;;;;;;63.42;22.10;;;;;;;-0.65;100.00;102465.84;5034194;28;20032;-82
2023/01/26 09:37:30;;;;;;;60.25;20.85;;;;;;;-0.62;100.00;102466.69;5038048;28;20041;-82
2023/01/26 09:39:55;;;;;;;58.28;21.92;;;;;;;-0.61;100.00;102472.63;5039249;28;20026;-82
2023/01/26 09:42:40;;;;;;;64.30;20.92;;;;;;;-0.56;100.00;102466.63;5039504;28;20032;-81
2023/01/26 09:45:11;;;;;;;62.72;20.58;;;;;;;-0.54;100.00;102475.09;5043901;28;20087;-82
2023/01/26 09:48:04;;;;;;;69.10;21.48;;;;;;;-0.59;100.00;102458.97;5032196;28;20041;-81
2023/01/26 09:50:36;;;;;;;64.43;22.40;;;;;;;-0.50;100.00;102462.31;5038083;28;20035;-83
2023/01/26 09:53:11;;;;;;;68.20;22.85;;;;;;;-0.47;100.00;102465.66;5036582;28;20076;-81
2023/01/26 09:55:40;;;;;;;67.75;20.95;;;;;;;-0.48;100.00;102455.50;5031936;28;20079;-82
2023/01/26 09:58:13;;;;;;;53.90;19.48;;;;;;;-0.47;100.00;102449.53;5034121;28;20044;-83
2023/01/26 10:00:51;;;;;;;61.58;19.70;;;;;;;-0.43;100.00;102451.22;5038698;28;20028;-81
2023/01/26 10:03:30;;;;;;;70.22;19.77;;;;;;;-0.37;100.00;102453.69;5044162;28;20087;-82
2023/01/26 10:06:01;;;;;;;76.15;23.75;;;;;;;-0.25;100.00;102473.97;5040364;28;20021;-81
2023/01/26 10:08:27;;;;;;;75.15;23.13;;;;;;;-0.25;100.00;102456.13;5037086;28;20033;-80
2023/01/26 10:10:58;;;;;;;74.53;22.80;;;;;;;-0.21;100.00;102457.78;5035190;28;20031;-82
2023/01/26 10:13:25;;;;;;;68.03;20.42;;;;;;;-0.12;100.00;102457.66;5040459;28;20032;-81
2023/01/26 10:15:55;;;;;;;73.25;22.75;;;;;;;-0.07;100.00;102461.00;5045153;28;20130;-80
2023/01/26 10:18:29;;;;;;;76.18;22.15;;;;;;;-0.04;100.00;102455.88;5032825;28;20079;-82
2023/01/26 10:20:57;;;;;;;69.78;21.00;;;;;;;0.06;100.00;102455.75;5045651;28;20060;-82
2023/01/26 10:23:33;;;;;;;63.75;19.95;;;;;;;0.12;100.00;102463.38;5042983;28;20547;-82
2023/01/26 10:26:15;;;;;;;70.93;21.17;;;;;;;0.18;100.00;102455.66;5030974;28;20076;-80
2023/01/26 10:28:42;;;;;;;78.43;22.15;;;;;;;0.32;100.00;102463.13;5043362;28;20033;-81
2023/01/26 10:31:20;;;;;;;78.82;22.13;;;;;;;0.37;100.00;102462.19;5028538;28;20112;-81
2023/01/26 10:33:53;;;;;;;81.47;22.83;;;;;;;0.48;100.00;102470.56;5032163;28;20074;-81
2023/01/26 10:36:19;;;;;;;70.18;20.98;;;;;;;0.58;100.00;102480.66;5029814;28;20029;-80
2023/01/26 10:38:45;;;;;;;69.93;19.92;;;;;;;0.55;100.00;102457.72;5036042;28;20032;-81
2023/01/26 10:41:17;;;;;;;70.03;20.15;;;;;;;0.71;100.00;102471.97;5030322;28;20117;-80
2023/01/26 10:43:52;;;;;;;61.75;19.60;;;;;;;0.78;100.00;102465.88;5041061;28;20500;-80
2023/01/26 10:46:26;;;;;;;67.50;18.17;;;;;;;0.85;100.00;102467.47;5037222;28;20036;-81
2023/01/26 10:48:59;;;;;;;65.45;19.23;;;;;;;0.96;100.00;102463.06;5039628;28;20500;-81
2023/01/26 10:51:35;;;;;;;71.50;20.42;;;;;;;1.08;100.00;102463.72;5034721;28;20373;-82
2023/01/26 10:54:35;;;;;;;76.68;21.08;;;;;;;1.27;100.00;102462.59;5035817;28;20458;-81
2023/01/26 10:57:02;;;;;;;71.22;17.42;;;;;;;1.49;100.00;102457.94;5018261;28;20104;-81
2023/01/26 10:59:39;;;;;;;71.00;16.30;;;;;;;1.67;100.00;102451.66;5031566;28;20032;-82
2023/01/26 11:02:10;;;;;;;62.83;16.25;;;;;;;1.85;100.00;102456.44;5042628;28;20029;-82
2023/01/26 11:04:37;;;;;;;61.33;15.50;;;;;;;1.94;100.00;102456.25;5041641;28;20033;-81
2023/01/26 11:07:25;;;;;;;68.57;16.00;;;;;;;2.12;100.00;102461.03;5033451;28;20123;-81
2023/01/26 11:09:51;;;;;;;71.40;14.50;;;;;;;2.33;100.00;102461.44;5041205;28;20121;-81
2023/01/26 11:12:18;;;;;;;55.10;14.02;;;;;;;2.48;100.00;102453.44;5036523;28;20036;-81
2023/01/26 11:15:00;;;;;;;51.38;12.55;;;;;;;2.57;100.00;102442.97;5037746;28;20681;-81
2023/01/26 11:17:43;;;;;;;63.25;13.45;;;;;;;2.75;100.00;102466.50;5028506;28;20108;-81
2023/01/26 11:20:25;;;;;;;54.00;12.50;;;;;;;2.86;100.00;102460.25;5034247;28;20532;-81
2023/01/26 11:23:03;;;;;;;50.72;12.68;;;;;;;3.01;100.00;102461.63;5038656;28;20025;-80
2023/01/26 11:25:40;;;;;;;47.92;11.23;;;;;;;3.07;100.00;102464.03;5038037;28;20485;-79
2023/01/26 11:28:17;;;;;;;48.22;11.70;;;;;;;3.20;100.00;102465.41;5036818;28;20453;-79
2023/01/26 11:30:54;;;;;;;47.88;13.43;;;;;;;3.30;100.00;102454.94;5032476;28;20701;-79
2023/01/26 11:33:31;;;;;;;43.38;11.90;;;;;;;3.34;100.00;102456.56;5038948;28;20034;-79
2023/01/26 11:36:08;;;;;;;43.13;10.70;;;;;;;3.49;100.00;102456.16;5042906;28;20028;-79
2023/01/26 11:38:41;;;;;;;41.28;10.63;;;;;;;3.60;100.00;102459.28;5034484;28;20025;-80
2023/01/26 11:41:28;;;;;;;44.20;11.25;;;;;;;3.69;100.00;102446.22;5038852;28;20029;-79
2023/01/26 11:44:04;;;;;;;44.20;9.50;;;;;;;3.75;100.00;102441.81;5031067;28;20025;-79
2023/01/26 11:46:46;;;;;;;43.33;11.45;;;;;;;3.86;100.00;102450.91;5032670;28;20048;-79
2023/01/26 11:49:12;;;;;;;39.00;9.23;;;;;;;3.93;100.00;102461.84;5056620;28;20063;-80